sensor_id;sensor_type;location;lat;lon;timestamp;pressure;altitude;pressure_sealevel;temperature
1532;BMP280;759;53.170;8.210;2022-07-05T00:00:04;101148.75;;;16.10
1532;BMP280;759;53.170;8.210;2022-07-05T00:02:31;101142.75;;;16.02
1532;BMP280;759;53.170;8.210;2022-07-05T00:04:56;101135.06;;;16.01
1532;BMP280;759;53.170;8.210;2022-07-05T00:07:21;101141.47;;;15.87
1532;BMP280;759;53.170;8.210;2022-07-05T00:09:50;101139.06;;;15.92
1532;BMP280;759;53.170;8.210;2022-07-05T00:12:16;101135.56;;;15.75
1532;BMP280;759;53.170;8.210;2022-07-05T00:14:42;101130.81;;;15.60
1532;BMP280;759;53.170;8.210;2022-07-05T00:17:07;101132.81;;;15.56
1532;BMP280;759;53.170;8.210;2022-07-05T00:19:33;101143.78;;;15.68
1532;BMP280;759;53.170;8.210;2022-07-05T00:21:58;101135.72;;;15.65
1532;BMP280;759;53.170;8.210;2022-07-05T00:24:24;101130.75;;;15.43
1532;BMP280;759;53.170;8.210;2022-07-05T00:26:49;101127.06;;;15.53
1532;BMP280;759;53.170;8.210;2022-07-05T00:29:15;101132.81;;;15.56
1532;BMP280;759;53.170;8.210;2022-07-05T00:31:40;101134.38;;;15.57
1532;BMP280;759;53.170;8.210;2022-07-05T00:34:05;101123.13;;;15.38
1532;BMP280;759;53.170;8.210;2022-07-05T00:36:31;101122.06;;;15.32
1532;BMP280;759;53.170;8.210;2022-07-05T00:38:56;101120.91;;;15.33
1532;BMP280;759;53.170;8.210;2022-07-05T00:41:21;101130.03;;;15.39
1532;BMP280;759;53.170;8.210;2022-07-05T00:43:54;101122.31;;;15.41
1532;BMP280;759;53.170;8.210;2022-07-05T00:46:19;101133.00;;;15.45
1532;BMP280;759;53.170;8.210;2022-07-05T00:48:44;101138.91;;;15.40
1532;BMP280;759;53.170;8.210;2022-07-05T00:51:10;101140.25;;;15.28
1532;BMP280;759;53.170;8.210;2022-07-05T00:53:35;101136.09;;;15.23
1532;BMP280;759;53.170;8.210;2022-07-05T00:56:00;101126.28;;;15.33
1532;BMP280;759;53.170;8.210;2022-07-05T00:58:26;101135.66;;;15.25
1532;BMP280;759;53.170;8.210;2022-07-05T01:00:52;101133.78;;;15.22
1532;BMP280;759;53.170;8.210;2022-07-05T01:03:17;101131.47;;;15.00
1532;BMP280;759;53.170;8.210;2022-07-05T01:05:42;101134.38;;;15.09
1532;BMP280;759;53.170;8.210;2022-07-05T01:08:08;101133.50;;;14.93
1532;BMP280;759;53.170;8.210;2022-07-05T01:10:33;101137.34;;;14.92
1532;BMP280;759;53.170;8.210;2022-07-05T01:12:58;101137.13;;;14.82
1532;BMP280;759;53.170;8.210;2022-07-05T01:15:24;101136.66;;;14.88
1532;BMP280;759;53.170;8.210;2022-07-05T01:17:49;101127.06;;;14.86
1532;BMP280;759;53.170;8.210;2022-07-05T01:20:15;101128.63;;;14.84
1532;BMP280;759;53.170;8.210;2022-07-05T01:22:53;101122.81;;;14.85
1532;BMP280;759;53.170;8.210;2022-07-05T01:25:22;101129.44;;;14.81
1532;BMP280;759;53.170;8.210;2022-07-05T01:27:47;101120.75;;;14.70
1532;BMP280;759;53.170;8.210;2022-07-05T01:30:13;101132.38;;;14.63
1532;BMP280;759;53.170;8.210;2022-07-05T01:32:38;101127.16;;;14.79
1532;BMP280;759;53.170;8.210;2022-07-05T01:35:04;101123.91;;;14.64
1532;BMP280;759;53.170;8.210;2022-07-05T01:37:29;101122.16;;;14.78
1532;BMP280;759;53.170;8.210;2022-07-05T01:39:55;101132.59;;;14.76
1532;BMP280;759;53.170;8.210;2022-07-05T01:42:21;101132.44;;;14.86
1532;BMP280;759;53.170;8.210;2022-07-05T01:44:46;101134.22;;;14.70
1532;BMP280;759;53.170;8.210;2022-07-05T01:47:11;101118.56;;;14.61
1532;BMP280;759;53.170;8.210;2022-07-05T01:49:41;101119.22;;;14.69
1532;BMP280;759;53.170;8.210;2022-07-05T01:52:08;101118.75;;;14.77
1532;BMP280;759;53.170;8.210;2022-07-05T01:54:34;101121.91;;;14.69
1532;BMP280;759;53.170;8.210;2022-07-05T01:57:00;101115.84;;;14.64
1532;BMP280;759;53.170;8.210;2022-07-05T01:59:26;101126.00;;;14.53
1532;BMP280;759;53.170;8.210;2022-07-05T02:01:52;101114.16;;;14.47
1532;BMP280;759;53.170;8.210;2022-07-05T02:04:17;101116.94;;;14.40
1532;BMP280;759;53.170;8.210;2022-07-05T02:06:43;101112.25;;;14.44
1532;BMP280;759;53.170;8.210;2022-07-05T02:09:10;101117.03;;;14.33
1532;BMP280;759;53.170;8.210;2022-07-05T02:11:35;101110.28;;;14.17
1532;BMP280;759;53.170;8.210;2022-07-05T02:14:01;101114.50;;;14.18
1532;BMP280;759;53.170;8.210;2022-07-05T02:16:26;101110.19;;;14.25
1532;BMP280;759;53.170;8.210;2022-07-05T02:18:52;101116.41;;;14.22
1532;BMP280;759;53.170;8.210;2022-07-05T02:21:17;101115.25;;;14.23
1532;BMP280;759;53.170;8.210;2022-07-05T02:23:42;101119.09;;;14.22
1532;BMP280;759;53.170;8.210;2022-07-05T02:26:08;101111.88;;;14.15
1532;BMP280;759;53.170;8.210;2022-07-05T02:28:33;101119.97;;;14.11
1532;BMP280;759;53.170;8.210;2022-07-05T02:30:58;101113.63;;;13.98
1532;BMP280;759;53.170;8.210;2022-07-05T02:33:24;101114.25;;;14.09
1532;BMP280;759;53.170;8.210;2022-07-05T02:35:49;101116.13;;;14.12
1532;BMP280;759;53.170;8.210;2022-07-05T02:38:14;101119.34;;;14.00
1532;BMP280;759;53.170;8.210;2022-07-05T02:40:40;101119.41;;;13.93
1532;BMP280;759;53.170;8.210;2022-07-05T02:43:05;101117.19;;;13.88
1532;BMP280;759;53.170;8.210;2022-07-05T02:45:30;101119.06;;;13.91
1532;BMP280;759;53.170;8.210;2022-07-05T02:47:56;101123.66;;;13.94
1532;BMP280;759;53.170;8.210;2022-07-05T02:50:22;101122.47;;;13.95
1532;BMP280;759;53.170;8.210;2022-07-05T02:52:47;101121.44;;;13.85
1532;BMP280;759;53.170;8.210;2022-07-05T02:55:12;101121.41;;;13.89
1532;BMP280;759;53.170;8.210;2022-07-05T02:57:38;101126.13;;;13.78
1532;BMP280;759;53.170;8.210;2022-07-05T03:00:03;101123.13;;;13.72
1532;BMP280;759;53.170;8.210;2022-07-05T03:02:28;101134.53;;;13.80
1532;BMP280;759;53.170;8.210;2022-07-05T03:04:54;101128.81;;;13.78
1532;BMP280;759;53.170;8.210;2022-07-05T03:07:19;101133.06;;;13.79
1532;BMP280;759;53.170;8.210;2022-07-05T03:09:44;101130.69;;;13.81
1532;BMP280;759;53.170;8.210;2022-07-05T03:12:10;101123.06;;;13.75
1532;BMP280;759;53.170;8.210;2022-07-05T03:14:35;101127.94;;;13.88
1532;BMP280;759;53.170;8.210;2022-07-05T03:17:00;101127.84;;;13.95
1532;BMP280;759;53.170;8.210;2022-07-05T03:19:26;101135.09;;;14.02
1532;BMP280;759;53.170;8.210;2022-07-05T03:21:51;101129.84;;;13.91
1532;BMP280;759;53.170;8.210;2022-07-05T03:24:16;101131.00;;;13.90
1532;BMP280;759;53.170;8.210;2022-07-05T03:26:42;101132.22;;;13.82
1532;BMP280;759;53.170;8.210;2022-07-05T03:29:07;101136.06;;;13.81
1532;BMP280;759;53.170;8.210;2022-07-05T03:31:32;101127.31;;;13.77
1532;BMP280;759;53.170;8.210;2022-07-05T03:33:58;101131.84;;;13.80
1532;BMP280;759;53.170;8.210;2022-07-05T03:36:23;101127.00;;;13.67
1532;BMP280;759;53.170;8.210;2022-07-05T03:38:48;101127.72;;;13.71
1532;BMP280;759;53.170;8.210;2022-07-05T03:41:13;101130.38;;;13.75
1532;BMP280;759;53.170;8.210;2022-07-05T03:43:39;101130.84;;;13.66
1532;BMP280;759;53.170;8.210;2022-07-05T03:46:04;101136.81;;;13.85
1532;BMP280;759;53.170;8.210;2022-07-05T03:48:29;101127.81;;;13.61
1532;BMP280;759;53.170;8.210;2022-07-05T03:50:55;101132.41;;;13.64
1532;BMP280;759;53.170;8.210;2022-07-05T03:53:20;101134.38;;;13.60
1532;BMP280;759;53.170;8.210;2022-07-05T03:55:45;101138.50;;;13.68
1532;BMP280;759;53.170;8.210;2022-07-05T03:58:10;101130.38;;;13.75
1532;BMP280;759;53.170;8.210;2022-07-05T04:00:36;101132.75;;;13.69
1532;BMP280;759;53.170;8.210;2022-07-05T04:03:01;101141.28;;;13.57
1532;BMP280;759;53.170;8.210;2022-07-05T04:05:26;101137.41;;;13.62
1532;BMP280;759;53.170;8.210;2022-07-05T04:07:53;101140.44;;;13.67
1532;BMP280;759;53.170;8.210;2022-07-05T04:10:18;101149.25;;;13.71
1532;BMP280;759;53.170;8.210;2022-07-05T04:15:18;101150.81;;;13.69
1532;BMP280;759;53.170;8.210;2022-07-05T04:17:50;101148.28;;;13.89
1532;BMP280;759;53.170;8.210;2022-07-05T04:20:15;101153.06;;;13.70
1532;BMP280;759;53.170;8.210;2022-07-05T04:22:41;101154.03;;;13.91
1532;BMP280;759;53.170;8.210;2022-07-05T04:25:06;101152.00;;;13.98
1532;BMP280;759;53.170;8.210;2022-07-05T04:27:48;101153.25;;;13.94
1532;BMP280;759;53.170;8.210;2022-07-05T04:30:17;101153.50;;;14.07
1532;BMP280;759;53.170;8.210;2022-07-05T04:32:43;101153.38;;;14.14
1532;BMP280;759;53.170;8.210;2022-07-05T04:35:09;101158.72;;;14.17
1532;BMP280;759;53.170;8.210;2022-07-05T04:37:34;101160.25;;;14.22
1532;BMP280;759;53.170;8.210;2022-07-05T04:40:00;101160.47;;;14.35
1532;BMP280;759;53.170;8.210;2022-07-05T04:42:28;101164.59;;;14.43
1532;BMP280;759;53.170;8.210;2022-07-05T04:44:53;101167.28;;;14.43
1532;BMP280;759;53.170;8.210;2022-07-05T04:47:19;101169.88;;;14.50
1532;BMP280;759;53.170;8.210;2022-07-05T04:49:44;101168.78;;;14.44
1532;BMP280;759;53.170;8.210;2022-07-05T04:52:09;101169.03;;;14.57
1532;BMP280;759;53.170;8.210;2022-07-05T04:54:35;101160.47;;;14.66
1532;BMP280;759;53.170;8.210;2022-07-05T04:57:01;101160.41;;;14.69
1532;BMP280;759;53.170;8.210;2022-07-05T04:59:29;101161.56;;;14.68
1532;BMP280;759;53.170;8.210;2022-07-05T05:01:54;101171.84;;;14.77
1532;BMP280;759;53.170;8.210;2022-07-05T05:04:19;101173.59;;;14.87
1532;BMP280;759;53.170;8.210;2022-07-05T05:06:45;101168.38;;;14.76
1532;BMP280;759;53.170;8.210;2022-07-05T05:09:10;101166.97;;;14.92
1532;BMP280;759;53.170;8.210;2022-07-05T05:11:35;101170.75;;;14.98
1532;BMP280;759;53.170;8.210;2022-07-05T05:14:01;101181.34;;;15.08
1532;BMP280;759;53.170;8.210;2022-07-05T05:16:26;101175.63;;;15.06
1532;BMP280;759;53.170;8.210;2022-07-05T05:18:51;101179.16;;;15.03
1532;BMP280;759;53.170;8.210;2022-07-05T05:21:20;101190.53;;;15.15
1532;BMP280;759;53.170;8.210;2022-07-05T05:23:45;101189.69;;;15.18
1532;BMP280;759;53.170;8.210;2022-07-05T05:26:10;101184.34;;;15.14
1532;BMP280;759;53.170;8.210;2022-07-05T05:28:36;101192.72;;;15.20
1532;BMP280;759;53.170;8.210;2022-07-05T05:31:02;101199.47;;;15.31
1532;BMP280;759;53.170;8.210;2022-07-05T05:33:29;101194.19;;;15.28
1532;BMP280;759;53.170;8.210;2022-07-05T05:35:55;101192.88;;;15.36
1532;BMP280;759;53.170;8.210;2022-07-05T05:38:20;101196.22;;;15.44
1532;BMP280;759;53.170;8.210;2022-07-05T05:40:46;101193.81;;;15.49
1532;BMP280;759;53.170;8.210;2022-07-05T05:43:11;101190.28;;;15.52
1532;BMP280;759;53.170;8.210;2022-07-05T05:45:36;101198.72;;;15.54
1532;BMP280;759;53.170;8.210;2022-07-05T05:48:04;101201.78;;;15.57
1532;BMP280;759;53.170;8.210;2022-07-05T05:50:34;101201.28;;;15.62
1532;BMP280;759;53.170;8.210;2022-07-05T05:53:04;101210.34;;;15.71
1532;BMP280;759;53.170;8.210;2022-07-05T05:55:37;101210.59;;;15.81
1532;BMP280;759;53.170;8.210;2022-07-05T05:58:13;101210.75;;;15.93
1532;BMP280;759;53.170;8.210;2022-07-05T06:00:38;101205.34;;;15.93
1532;BMP280;759;53.170;8.210;2022-07-05T06:03:04;101206.63;;;16.09
1532;BMP280;759;53.170;8.210;2022-07-05T06:05:31;101218.78;;;16.17
1532;BMP280;759;53.170;8.210;2022-07-05T06:07:57;101212.00;;;16.09
1532;BMP280;759;53.170;8.210;2022-07-05T06:10:23;101213.38;;;16.17
1532;BMP280;759;53.170;8.210;2022-07-05T06:12:49;101216.63;;;16.28
1532;BMP280;759;53.170;8.210;2022-07-05T06:15:15;101220.78;;;16.33
1532;BMP280;759;53.170;8.210;2022-07-05T06:17:41;101230.25;;;16.41
1532;BMP280;759;53.170;8.210;2022-07-05T06:20:07;101222.97;;;16.38
1532;BMP280;759;53.170;8.210;2022-07-05T06:22:33;101224.31;;;16.50
1532;BMP280;759;53.170;8.210;2022-07-05T06:24:58;101222.63;;;16.56
1532;BMP280;759;53.170;8.210;2022-07-05T06:27:23;101237.69;;;16.73
1532;BMP280;759;53.170;8.210;2022-07-05T06:29:49;101237.13;;;16.82
1532;BMP280;759;53.170;8.210;2022-07-05T06:32:14;101236.25;;;16.85
1532;BMP280;759;53.170;8.210;2022-07-05T06:34:39;101220.63;;;16.76
1532;BMP280;759;53.170;8.210;2022-07-05T06:37:05;101237.91;;;16.99
1532;BMP280;759;53.170;8.210;2022-07-05T06:39:30;101236.69;;;17.16
1532;BMP280;759;53.170;8.210;2022-07-05T06:41:55;101247.50;;;17.32
1532;BMP280;759;53.170;8.210;2022-07-05T06:44:20;101253.56;;;17.36
1532;BMP280;759;53.170;8.210;2022-07-05T06:46:46;101255.47;;;17.40
1532;BMP280;759;53.170;8.210;2022-07-05T06:49:11;101250.53;;;17.51
1532;BMP280;759;53.170;8.210;2022-07-05T06:51:36;101248.16;;;17.53
1532;BMP280;759;53.170;8.210;2022-07-05T06:54:02;101246.59;;;17.68
1532;BMP280;759;53.170;8.210;2022-07-05T06:56:27;101250.75;;;17.73
1532;BMP280;759;53.170;8.210;2022-07-05T06:58:52;101241.34;;;17.77
1532;BMP280;759;53.170;8.210;2022-07-05T07:01:17;101249.59;;;17.87
1532;BMP280;759;53.170;8.210;2022-07-05T07:03:43;101238.25;;;17.92
1532;BMP280;759;53.170;8.210;2022-07-05T07:06:08;101241.44;;;18.03
1532;BMP280;759;53.170;8.210;2022-07-05T07:08:33;101250.69;;;18.18
1532;BMP280;759;53.170;8.210;2022-07-05T07:11:17;101251.09;;;18.17
1532;BMP280;759;53.170;8.210;2022-07-05T07:13:43;101251.88;;;18.30
1532;BMP280;759;53.170;8.210;2022-07-05T07:16:08;101263.28;;;18.38
1532;BMP280;759;53.170;8.210;2022-07-05T07:18:34;101248.84;;;18.41
1532;BMP280;759;53.170;8.210;2022-07-05T07:21:00;101255.41;;;18.56
1532;BMP280;759;53.170;8.210;2022-07-05T07:23:26;101251.25;;;18.64
1532;BMP280;759;53.170;8.210;2022-07-05T07:25:51;101256.00;;;18.73
1532;BMP280;759;53.170;8.210;2022-07-05T07:28:16;101250.50;;;18.89
1532;BMP280;759;53.170;8.210;2022-07-05T07:30:42;101255.47;;;18.91
1532;BMP280;759;53.170;8.210;2022-07-05T07:33:07;101257.19;;;18.97
1532;BMP280;759;53.170;8.210;2022-07-05T07:35:32;101258.59;;;18.76
1532;BMP280;759;53.170;8.210;2022-07-05T07:37:58;101257.13;;;18.75
1532;BMP280;759;53.170;8.210;2022-07-05T07:40:23;101268.16;;;18.94
1532;BMP280;759;53.170;8.210;2022-07-05T07:42:48;101262.94;;;19.12
1532;BMP280;759;53.170;8.210;2022-07-05T07:45:13;101270.53;;;19.17
1532;BMP280;759;53.170;8.210;2022-07-05T07:47:39;101275.19;;;19.17
1532;BMP280;759;53.170;8.210;2022-07-05T07:50:05;101267.34;;;19.19
1532;BMP280;759;53.170;8.210;2022-07-05T07:52:31;101272.28;;;19.11
1532;BMP280;759;53.170;8.210;2022-07-05T07:54:58;101277.19;;;19.38
1532;BMP280;759;53.170;8.210;2022-07-05T07:57:26;101278.84;;;19.58
1532;BMP280;759;53.170;8.210;2022-07-05T07:59:51;101273.84;;;19.56
1532;BMP280;759;53.170;8.210;2022-07-05T08:02:17;101270.41;;;19.78
1532;BMP280;759;53.170;8.210;2022-07-05T08:04:46;101278.16;;;19.44
1532;BMP280;759;53.170;8.210;2022-07-05T08:07:11;101267.25;;;19.22
1532;BMP280;759;53.170;8.210;2022-07-05T08:09:36;101278.31;;;19.15
1532;BMP280;759;53.170;8.210;2022-07-05T08:12:01;101266.50;;;19.09
1532;BMP280;759;53.170;8.210;2022-07-05T08:14:27;101267.91;;;19.27
1532;BMP280;759;53.170;8.210;2022-07-05T08:16:52;101270.16;;;19.63
1532;BMP280;759;53.170;8.210;2022-07-05T08:19:18;101275.53;;;19.76
1532;BMP280;759;53.170;8.210;2022-07-05T08:22:02;101273.28;;;20.05
1532;BMP280;759;53.170;8.210;2022-07-05T08:24:28;101274.81;;;20.37
1532;BMP280;759;53.170;8.210;2022-07-05T08:26:53;101274.31;;;20.30
1532;BMP280;759;53.170;8.210;2022-07-05T08:29:18;101268.94;;;20.39
1532;BMP280;759;53.170;8.210;2022-07-05T08:31:48;101276.28;;;20.29
1532;BMP280;759;53.170;8.210;2022-07-05T08:34:14;101279.00;;;19.98
1532;BMP280;759;53.170;8.210;2022-07-05T08:36:40;101272.34;;;19.77
1532;BMP280;759;53.170;8.210;2022-07-05T08:39:07;101267.78;;;19.52
1532;BMP280;759;53.170;8.210;2022-07-05T08:41:34;101275.78;;;19.68
1532;BMP280;759;53.170;8.210;2022-07-05T08:44:02;101270.13;;;19.76
1532;BMP280;759;53.170;8.210;2022-07-05T08:46:31;101271.22;;;19.65
1532;BMP280;759;53.170;8.210;2022-07-05T08:48:58;101280.41;;;19.46
1532;BMP280;759;53.170;8.210;2022-07-05T08:51:24;101272.28;;;19.90
1532;BMP280;759;53.170;8.210;2022-07-05T08:53:50;101266.00;;;19.93
1532;BMP280;759;53.170;8.210;2022-07-05T08:56:34;101271.84;;;19.91
1532;BMP280;759;53.170;8.210;2022-07-05T08:59:10;101274.94;;;19.81
1532;BMP280;759;53.170;8.210;2022-07-05T09:01:51;101276.31;;;19.63
1532;BMP280;759;53.170;8.210;2022-07-05T09:04:36;101273.34;;;19.49
1532;BMP280;759;53.170;8.210;2022-07-05T09:07:03;101278.25;;;19.41
1532;BMP280;759;53.170;8.210;2022-07-05T09:09:32;101276.66;;;19.43
1532;BMP280;759;53.170;8.210;2022-07-05T09:11:58;101284.28;;;19.45
1532;BMP280;759;53.170;8.210;2022-07-05T09:14:27;101291.13;;;19.62
1532;BMP280;759;53.170;8.210;2022-07-05T09:16:52;101286.38;;;19.54
1532;BMP280;759;53.170;8.210;2022-07-05T09:19:18;101285.91;;;19.55
1532;BMP280;759;53.170;8.210;2022-07-05T09:21:44;101302.22;;;19.77
1532;BMP280;759;53.170;8.210;2022-07-05T09:24:10;101286.00;;;19.64
1532;BMP280;759;53.170;8.210;2022-07-05T09:26:39;101289.28;;;19.81
1532;BMP280;759;53.170;8.210;2022-07-05T09:29:09;101290.38;;;20.37
1532;BMP280;759;53.170;8.210;2022-07-05T09:31:41;101287.34;;;20.35
1532;BMP280;759;53.170;8.210;2022-07-05T09:34:10;101285.81;;;20.34
1532;BMP280;759;53.170;8.210;2022-07-05T09:42:14;101295.59;;;20.53
1532;BMP280;759;53.170;8.210;2022-07-05T09:44:44;101311.16;;;21.11
1532;BMP280;759;53.170;8.210;2022-07-05T09:47:10;101302.09;;;21.51
1532;BMP280;759;53.170;8.210;2022-07-05T09:49:37;101305.00;;;21.39
1532;BMP280;759;53.170;8.210;2022-07-05T09:52:02;101296.66;;;21.42
1532;BMP280;759;53.170;8.210;2022-07-05T09:54:27;101305.16;;;21.26
1532;BMP280;759;53.170;8.210;2022-07-05T09:56:53;101297.50;;;20.84
1532;BMP280;759;53.170;8.210;2022-07-05T09:59:19;101297.97;;;20.92
1532;BMP280;759;53.170;8.210;2022-07-05T10:01:45;101297.97;;;20.92
1532;BMP280;759;53.170;8.210;2022-07-05T10:04:10;101296.63;;;21.05
1532;BMP280;759;53.170;8.210;2022-07-05T10:06:36;101295.75;;;21.08
1532;BMP280;759;53.170;8.210;2022-07-05T10:09:01;101300.22;;;20.84
1532;BMP280;759;53.170;8.210;2022-07-05T10:11:26;101298.34;;;20.72
1532;BMP280;759;53.170;8.210;2022-07-05T10:13:52;101294.94;;;20.49
1532;BMP280;759;53.170;8.210;2022-07-05T10:16:18;101293.81;;;20.28
1532;BMP280;759;53.170;8.210;2022-07-05T10:18:44;101299.56;;;20.08
1532;BMP280;759;53.170;8.210;2022-07-05T10:21:13;101300.63;;;20.33
1532;BMP280;759;53.170;8.210;2022-07-05T10:23:41;101297.06;;;20.45
1532;BMP280;759;53.170;8.210;2022-07-05T10:26:07;101302.31;;;20.71
1532;BMP280;759;53.170;8.210;2022-07-05T10:28:33;101300.41;;;20.99
1532;BMP280;759;53.170;8.210;2022-07-05T10:30:59;101302.06;;;20.96
1532;BMP280;759;53.170;8.210;2022-07-05T10:33:24;101291.34;;;21.11
1532;BMP280;759;53.170;8.210;2022-07-05T10:35:52;101291.06;;;21.55
1532;BMP280;759;53.170;8.210;2022-07-05T10:38:18;101283.97;;;21.57
1532;BMP280;759;53.170;8.210;2022-07-05T10:40:46;101287.75;;;21.42
1532;BMP280;759;53.170;8.210;2022-07-05T10:43:12;101291.38;;;21.57
1532;BMP280;759;53.170;8.210;2022-07-05T10:45:38;101289.97;;;21.80
1532;BMP280;759;53.170;8.210;2022-07-05T10:48:23;101294.22;;;21.90
1532;BMP280;759;53.170;8.210;2022-07-05T10:50:50;101303.91;;;21.64
1532;BMP280;759;53.170;8.210;2022-07-05T10:53:17;101299.69;;;21.53
1532;BMP280;759;53.170;8.210;2022-07-05T10:58:29;101295.03;;;21.54
1532;BMP280;759;53.170;8.210;2022-07-05T11:03:39;101291.91;;;20.78
1532;BMP280;759;53.170;8.210;2022-07-05T11:06:05;101304.13;;;20.83
1532;BMP280;759;53.170;8.210;2022-07-05T11:11:16;101298.59;;;20.55
1532;BMP280;759;53.170;8.210;2022-07-05T11:13:41;101291.63;;;20.45
1532;BMP280;759;53.170;8.210;2022-07-05T11:16:25;101293.22;;;20.64
1532;BMP280;759;53.170;8.210;2022-07-05T11:18:51;101293.25;;;20.83
1532;BMP280;759;53.170;8.210;2022-07-05T11:21:17;101292.06;;;21.02
1532;BMP280;759;53.170;8.210;2022-07-05T11:23:44;101290.63;;;21.38
1532;BMP280;759;53.170;8.210;2022-07-05T11:26:09;101290.47;;;21.69
1532;BMP280;759;53.170;8.210;2022-07-05T11:28:43;101303.25;;;21.96
1532;BMP280;759;53.170;8.210;2022-07-05T11:31:09;101298.78;;;21.75
1532;BMP280;759;53.170;8.210;2022-07-05T11:33:38;101305.13;;;21.63
1532;BMP280;759;53.170;8.210;2022-07-05T11:36:04;101294.22;;;21.07
1532;BMP280;759;53.170;8.210;2022-07-05T11:38:30;101294.25;;;21.35
1532;BMP280;759;53.170;8.210;2022-07-05T11:40:56;101289.63;;;21.96
1532;BMP280;759;53.170;8.210;2022-07-05T11:43:35;101292.63;;;22.07
1532;BMP280;759;53.170;8.210;2022-07-05T11:46:00;101284.78;;;21.91
1532;BMP280;759;53.170;8.210;2022-07-05T11:48:28;101285.34;;;22.14
1532;BMP280;759;53.170;8.210;2022-07-05T11:50:54;101279.91;;;22.14
1532;BMP280;759;53.170;8.210;2022-07-05T11:53:29;101282.38;;;21.93
1532;BMP280;759;53.170;8.210;2022-07-05T11:55:58;101287.28;;;21.71
1532;BMP280;759;53.170;8.210;2022-07-05T11:58:31;101280.66;;;21.26
1532;BMP280;759;53.170;8.210;2022-07-05T12:00:57;101282.00;;;21.40
1532;BMP280;759;53.170;8.210;2022-07-05T12:03:22;101277.91;;;21.35
1532;BMP280;759;53.170;8.210;2022-07-05T12:05:47;101282.47;;;21.38
1532;BMP280;759;53.170;8.210;2022-07-05T12:08:19;101286.09;;;21.26
1532;BMP280;759;53.170;8.210;2022-07-05T12:10:48;101280.03;;;21.31
1532;BMP280;759;53.170;8.210;2022-07-05T12:13:41;101292.44;;;21.59
1532;BMP280;759;53.170;8.210;2022-07-05T12:16:07;101290.16;;;21.76
1532;BMP280;759;53.170;8.210;2022-07-05T12:18:45;101290.19;;;22.19
1532;BMP280;759;53.170;8.210;2022-07-05T12:21:13;101284.84;;;22.58
1532;BMP280;759;53.170;8.210;2022-07-05T12:23:41;101281.34;;;22.33
1532;BMP280;759;53.170;8.210;2022-07-05T12:26:06;101282.44;;;22.26
1532;BMP280;759;53.170;8.210;2022-07-05T12:28:31;101277.88;;;21.90
1532;BMP280;759;53.170;8.210;2022-07-05T12:30:57;101284.50;;;21.98
1532;BMP280;759;53.170;8.210;2022-07-05T12:33:23;101280.66;;;22.14
1532;BMP280;759;53.170;8.210;2022-07-05T12:35:48;101289.50;;;22.33
1532;BMP280;759;53.170;8.210;2022-07-05T12:38:19;101290.25;;;22.67
1532;BMP280;759;53.170;8.210;2022-07-05T12:40:45;101279.47;;;22.48
1532;BMP280;759;53.170;8.210;2022-07-05T12:43:11;101298.88;;;22.41
1532;BMP280;759;53.170;8.210;2022-07-05T12:45:37;101287.28;;;22.55
1532;BMP280;759;53.170;8.210;2022-07-05T12:48:04;101286.28;;;22.11
1532;BMP280;759;53.170;8.210;2022-07-05T12:50:30;101293.47;;;22.32
1532;BMP280;759;53.170;8.210;2022-07-05T12:53:09;101285.63;;;22.25
1532;BMP280;759;53.170;8.210;2022-07-05T12:56:03;101289.19;;;22.31
1532;BMP280;759;53.170;8.210;2022-07-05T12:58:49;101280.59;;;22.32
1532;BMP280;759;53.170;8.210;2022-07-05T13:01:33;101283.13;;;22.45
1532;BMP280;759;53.170;8.210;2022-07-05T13:04:18;101283.34;;;22.56
1532;BMP280;759;53.170;8.210;2022-07-05T13:06:54;101263.56;;;22.14
1532;BMP280;759;53.170;8.210;2022-07-05T13:14:19;101290.31;;;23.05
1532;BMP280;759;53.170;8.210;2022-07-05T13:16:44;101287.66;;;22.72
1532;BMP280;759;53.170;8.210;2022-07-05T13:19:11;101295.66;;;22.76
1532;BMP280;759;53.170;8.210;2022-07-05T13:21:36;101294.50;;;22.68
1532;BMP280;759;53.170;8.210;2022-07-05T13:24:02;101288.69;;;22.51
1532;BMP280;759;53.170;8.210;2022-07-05T13:26:28;101283.75;;;22.31
1532;BMP280;759;53.170;8.210;2022-07-05T13:28:53;101275.53;;;22.49
1532;BMP280;759;53.170;8.210;2022-07-05T13:31:19;101282.19;;;22.48
1532;BMP280;759;53.170;8.210;2022-07-05T13:33:45;101275.69;;;22.13
1532;BMP280;759;53.170;8.210;2022-07-05T13:36:10;101272.53;;;22.05
1532;BMP280;759;53.170;8.210;2022-07-05T13:38:35;101280.00;;;22.19
1532;BMP280;759;53.170;8.210;2022-07-05T13:41:01;101269.88;;;21.77
1532;BMP280;759;53.170;8.210;2022-07-05T13:43:26;101280.28;;;21.79
1532;BMP280;759;53.170;8.210;2022-07-05T13:45:51;101288.78;;;21.72
1532;BMP280;759;53.170;8.210;2022-07-05T13:48:16;101283.97;;;21.21
1532;BMP280;759;53.170;8.210;2022-07-05T13:50:42;101282.75;;;21.31
1532;BMP280;759;53.170;8.210;2022-07-05T13:53:07;101281.38;;;20.99
1532;BMP280;759;53.170;8.210;2022-07-05T13:55:32;101279.25;;;21.40
1532;BMP280;759;53.170;8.210;2022-07-05T13:57:57;101288.75;;;21.90
1532;BMP280;759;53.170;8.210;2022-07-05T14:00:24;101284.94;;;21.88
1532;BMP280;759;53.170;8.210;2022-07-05T14:02:51;101293.03;;;22.34
1532;BMP280;759;53.170;8.210;2022-07-05T14:05:16;101289.06;;;22.35
1532;BMP280;759;53.170;8.210;2022-07-05T14:07:43;101310.75;;;22.86
1532;BMP280;759;53.170;8.210;2022-07-05T14:10:08;101300.53;;;22.72
1532;BMP280;759;53.170;8.210;2022-07-05T14:12:33;101298.25;;;22.04
1532;BMP280;759;53.170;8.210;2022-07-05T14:14:59;101296.94;;;21.81
1532;BMP280;759;53.170;8.210;2022-07-05T14:17:24;101298.78;;;21.75
1532;BMP280;759;53.170;8.210;2022-07-05T14:19:49;101296.31;;;21.95
1532;BMP280;759;53.170;8.210;2022-07-05T14:22:14;101308.72;;;21.96
1532;BMP280;759;53.170;8.210;2022-07-05T14:24:40;101300.41;;;21.91
1532;BMP280;759;53.170;8.210;2022-07-05T14:27:05;101303.09;;;22.09
1532;BMP280;759;53.170;8.210;2022-07-05T14:29:34;101316.28;;;22.11
1532;BMP280;759;53.170;8.210;2022-07-05T14:31:59;101308.75;;;21.78
1532;BMP280;759;53.170;8.210;2022-07-05T14:34:25;101302.41;;;21.63
1532;BMP280;759;53.170;8.210;2022-07-05T14:36:50;101306.06;;;21.50
1532;BMP280;759;53.170;8.210;2022-07-05T14:39:16;101312.41;;;21.66
1532;BMP280;759;53.170;8.210;2022-07-05T14:41:41;101314.59;;;22.46
1532;BMP280;759;53.170;8.210;2022-07-05T14:44:08;101322.16;;;23.23
1532;BMP280;759;53.170;8.210;2022-07-05T14:46:33;101320.38;;;23.35
1532;BMP280;759;53.170;8.210;2022-07-05T14:48:59;101318.84;;;23.43
1532;BMP280;759;53.170;8.210;2022-07-05T14:51:24;101307.56;;;22.88